Schenectady, NY (12008)

12:41 AM EST on February 11, 2016 (GMT -0500)
NonFedAWOS | | Change Station
CLOSE
Current Station
Personal Weather Station
Location: Schenectady, NY
Elevation: 377 ft
Nearby Weather Stations

Elev 377 ft 42.85 °N, 73.93 °W | Updated 18 minutes ago

Overcast
Overcast
27 °F
Feels Like 16 °F
N
14
Wind Variable Wind from WNW
Gusts 21.0 mph

Today
High -- | Low -- °F
--% Chance of Precip.
Yesterday
High -- | Low -- °F
Precip. -- in
Pressure 29.72 in
Visibility 10.0 miles
Clouds Few 3800 ft
Mostly Cloudy 9000 ft
Overcast 10000 ft
Windchill 16 °F
Dew Point 14 °F
Humidity 58%
Rainfall in
Snow Depth Not available.
6:59 AM 5:21 PM
Waxing Crescent, 9% visible
METAR KALB 110451Z 27008KT 10SM FEW038 BKN090 OVC100 M03/M11 A2970 RMK AO2 SLP062 T10281106 400281050
Pressure 29.72 in
Visibility 10.0 miles
Clouds Few 3800 ft
Mostly Cloudy 9000 ft
Overcast 10000 ft
Windchill 16 °F
Dew Point 14 °F
Humidity 58%
Rainfall in
Snow Depth Not available.
6:59 AM 5:21 PM
Waxing Crescent, 9% visible
METAR KALB 110451Z 27008KT 10SM FEW038 BKN090 OVC100 M03/M11 A2970 RMK AO2 SLP062 T10281106 400281050

10-Day Weather Forecast

Almanac

Astronomy

Feb. 11, 2016 Rise Set
Actual Time
Civil Twilight
Nautical Twilight
Astronomical Twilight
Moon
Length of Visible Light
Length of Day
Tomorrow will be .
, % of the Moon is Illuminated

Today's Extremes

State Highs State Lows

Community

WunderPhotos

Upload Photos

1,892,023 photos uploaded!

WunderBlog® & News

Nearby

Air Quality

  Air Quality AQ Index Pollutant
Not available.

Snow Depth

Station Depth Elevation

Earthquake Activity

City Distance Mag. Time & Date
Minimum magnitude displayed is 2.5.

Coastal Water Temperatures

Place Temperature

Stations

Nearby Weather Stations

Station Location Temp. Windchill Dew Point Humidity Wind Precip. Elev Updated Type
                   

Watches & Warnings

There are currently no watches in effect.